sensor_id;sensor_type;location;lat;lon;timestamp;P1;durP1;ratioP1;P2;durP2;ratioP2
73276;SDS011;61501;43.316;5.372;2023-01-10T00:01:26;3.97;;;2.20;;
73276;SDS011;61501;43.316;5.372;2023-01-10T00:03:52;5.03;;;2.13;;
73276;SDS011;61501;43.316;5.372;2023-01-10T00:06:17;5.38;;;1.80;;
73276;SDS011;61501;43.316;5.372;2023-01-10T00:08:43;5.15;;;2.10;;
73276;SDS011;61501;43.316;5.372;2023-01-10T00:11:09;3.90;;;1.85;;
73276;SDS011;61501;43.316;5.372;2023-01-10T00:13:57;4.13;;;2.10;;
73276;SDS011;61501;43.316;5.372;2023-01-10T00:16:22;3.42;;;1.85;;
73276;SDS011;61501;43.316;5.372;2023-01-10T00:18:48;5.75;;;2.03;;
73276;SDS011;61501;43.316;5.372;2023-01-10T00:21:14;7.03;;;2.45;;
73276;SDS011;61501;43.316;5.372;2023-01-10T00:23:40;3.90;;;1.75;;
73276;SDS011;61501;43.316;5.372;2023-01-10T00:26:10;4.72;;;1.90;;
73276;SDS011;61501;43.316;5.372;2023-01-10T00:28:36;4.22;;;1.90;;
73276;SDS011;61501;43.316;5.372;2023-01-10T00:31:03;4.32;;;2.17;;
73276;SDS011;61501;43.316;5.372;2023-01-10T00:33:35;4.20;;;1.65;;
73276;SDS011;61501;43.316;5.372;2023-01-10T00:36:04;3.95;;;1.95;;
73276;SDS011;61501;43.316;5.372;2023-01-10T00:38:31;3.00;;;1.70;;
73276;SDS011;61501;43.316;5.372;2023-01-10T00:40:59;4.72;;;2.08;;
73276;SDS011;61501;43.316;5.372;2023-01-10T00:43:25;4.97;;;2.83;;
73276;SDS011;61501;43.316;5.372;2023-01-10T00:46:09;4.32;;;2.20;;
73276;SDS011;61501;43.316;5.372;2023-01-10T00:48:35;4.18;;;1.95;;
73276;SDS011;61501;43.316;5.372;2023-01-10T00:51:01;3.30;;;1.88;;
73276;SDS011;61501;43.316;5.372;2023-01-10T00:53:27;4.22;;;1.67;;
73276;SDS011;61501;43.316;5.372;2023-01-10T00:55:53;3.95;;;2.13;;
73276;SDS011;61501;43.316;5.372;2023-01-10T00:58:19;5.05;;;2.38;;
73276;SDS011;61501;43.316;5.372;2023-01-10T01:00:45;4.95;;;2.15;;
73276;SDS011;61501;43.316;5.372;2023-01-10T01:03:13;4.57;;;2.40;;
73276;SDS011;61501;43.316;5.372;2023-01-10T01:05:43;5.55;;;2.03;;
73276;SDS011;61501;43.316;5.372;2023-01-10T01:08:10;4.18;;;2.03;;
73276;SDS011;61501;43.316;5.372;2023-01-10T01:10:37;6.60;;;3.75;;
73276;SDS011;61501;43.316;5.372;2023-01-10T01:13:06;5.50;;;2.70;;
73276;SDS011;61501;43.316;5.372;2023-01-10T01:15:40;4.50;;;2.28;;
73276;SDS011;61501;43.316;5.372;2023-01-10T01:18:06;4.22;;;2.40;;
73276;SDS011;61501;43.316;5.372;2023-01-10T01:20:32;3.80;;;2.10;;
73276;SDS011;61501;43.316;5.372;2023-01-10T01:22:58;3.67;;;2.05;;
73276;SDS011;61501;43.316;5.372;2023-01-10T01:25:25;5.10;;;2.20;;
73276;SDS011;61501;43.316;5.372;2023-01-10T01:27:51;4.00;;;1.88;;
73276;SDS011;61501;43.316;5.372;2023-01-10T01:30:17;3.80;;;1.63;;
73276;SDS011;61501;43.316;5.372;2023-01-10T01:32:42;4.65;;;2.00;;
73276;SDS011;61501;43.316;5.372;2023-01-10T01:35:09;3.25;;;1.80;;
73276;SDS011;61501;43.316;5.372;2023-01-10T01:37:38;3.30;;;1.90;;
73276;SDS011;61501;43.316;5.372;2023-01-10T01:40:04;3.45;;;1.88;;
73276;SDS011;61501;43.316;5.372;2023-01-10T01:42:32;3.15;;;1.75;;
73276;SDS011;61501;43.316;5.372;2023-01-10T01:47:37;4.80;;;1.70;;
73276;SDS011;61501;43.316;5.372;2023-01-10T01:53:12;6.13;;;1.70;;
73276;SDS011;61501;43.316;5.372;2023-01-10T01:55:43;3.58;;;1.45;;
73276;SDS011;61501;43.316;5.372;2023-01-10T01:58:12;3.28;;;1.52;;
73276;SDS011;61501;43.316;5.372;2023-01-10T02:00:44;2.75;;;1.40;;
73276;SDS011;61501;43.316;5.372;2023-01-10T02:03:10;4.82;;;1.80;;
73276;SDS011;61501;43.316;5.372;2023-01-10T02:05:37;2.92;;;1.40;;
73276;SDS011;61501;43.316;5.372;2023-01-10T02:08:04;3.30;;;1.58;;
73276;SDS011;61501;43.316;5.372;2023-01-10T02:13:08;3.42;;;1.67;;
73276;SDS011;61501;43.316;5.372;2023-01-10T02:15:38;3.35;;;1.52;;
73276;SDS011;61501;43.316;5.372;2023-01-10T02:18:04;3.90;;;1.80;;
73276;SDS011;61501;43.316;5.372;2023-01-10T02:20:42;3.17;;;1.45;;
73276;SDS011;61501;43.316;5.372;2023-01-10T02:26:46;3.72;;;2.00;;
73276;SDS011;61501;43.316;5.372;2023-01-10T02:29:31;3.53;;;1.80;;
73276;SDS011;61501;43.316;5.372;2023-01-10T02:32:41;2.85;;;1.40;;
73276;SDS011;61501;43.316;5.372;2023-01-10T02:38:15;3.58;;;1.60;;
73276;SDS011;61501;43.316;5.372;2023-01-10T02:41:04;4.85;;;1.45;;
73276;SDS011;61501;43.316;5.372;2023-01-10T02:43:34;3.70;;;1.40;;
73276;SDS011;61501;43.316;5.372;2023-01-10T02:46:10;2.95;;;1.45;;
73276;SDS011;61501;43.316;5.372;2023-01-10T02:48:40;3.20;;;1.70;;
73276;SDS011;61501;43.316;5.372;2023-01-10T02:51:20;3.28;;;1.42;;
73276;SDS011;61501;43.316;5.372;2023-01-10T02:53:52;3.00;;;1.65;;
73276;SDS011;61501;43.316;5.372;2023-01-10T02:59:31;2.03;;;1.30;;
73276;SDS011;61501;43.316;5.372;2023-01-10T03:05:02;3.13;;;1.40;;
73276;SDS011;61501;43.316;5.372;2023-01-10T03:07:41;3.65;;;1.42;;
73276;SDS011;61501;43.316;5.372;2023-01-10T03:15:26;2.80;;;1.42;;
73276;SDS011;61501;43.316;5.372;2023-01-10T03:17:54;2.85;;;1.40;;
73276;SDS011;61501;43.316;5.372;2023-01-10T03:20:23;4.53;;;1.40;;
73276;SDS011;61501;43.316;5.372;2023-01-10T03:22:51;4.63;;;1.60;;
73276;SDS011;61501;43.316;5.372;2023-01-10T03:25:20;3.88;;;1.40;;
73276;SDS011;61501;43.316;5.372;2023-01-10T03:30:30;4.35;;;1.70;;
73276;SDS011;61501;43.316;5.372;2023-01-10T03:33:09;4.07;;;1.50;;
73276;SDS011;61501;43.316;5.372;2023-01-10T03:38:10;5.07;;;1.58;;
73276;SDS011;61501;43.316;5.372;2023-01-10T03:41:02;3.08;;;1.50;;
73276;SDS011;61501;43.316;5.372;2023-01-10T03:43:42;4.97;;;1.60;;
73276;SDS011;61501;43.316;5.372;2023-01-10T03:48:59;4.68;;;1.80;;
73276;SDS011;61501;43.316;5.372;2023-01-10T03:51:29;6.32;;;2.42;;
73276;SDS011;61501;43.316;5.372;2023-01-10T03:53:58;2.85;;;1.52;;
73276;SDS011;61501;43.316;5.372;2023-01-10T03:56:25;3.72;;;1.80;;
73276;SDS011;61501;43.316;5.372;2023-01-10T03:58:50;4.60;;;1.50;;
73276;SDS011;61501;43.316;5.372;2023-01-10T04:01:16;3.88;;;1.70;;
73276;SDS011;61501;43.316;5.372;2023-01-10T04:03:43;3.58;;;1.38;;
73276;SDS011;61501;43.316;5.372;2023-01-10T04:06:08;3.53;;;1.50;;
73276;SDS011;61501;43.316;5.372;2023-01-10T04:08:34;4.25;;;1.95;;
73276;SDS011;61501;43.316;5.372;2023-01-10T04:11:00;4.15;;;1.70;;
73276;SDS011;61501;43.316;5.372;2023-01-10T04:13:25;2.75;;;1.42;;
73276;SDS011;61501;43.316;5.372;2023-01-10T04:15:51;4.15;;;1.60;;
73276;SDS011;61501;43.316;5.372;2023-01-10T04:18:17;4.68;;;1.80;;
73276;SDS011;61501;43.316;5.372;2023-01-10T04:20:44;5.47;;;1.92;;
73276;SDS011;61501;43.316;5.372;2023-01-10T04:23:10;3.65;;;1.58;;
73276;SDS011;61501;43.316;5.372;2023-01-10T04:25:35;3.10;;;1.50;;
73276;SDS011;61501;43.316;5.372;2023-01-10T04:28:01;4.10;;;1.80;;
73276;SDS011;61501;43.316;5.372;2023-01-10T04:30:26;5.80;;;1.90;;
73276;SDS011;61501;43.316;5.372;2023-01-10T04:32:52;4.78;;;1.85;;
73276;SDS011;61501;43.316;5.372;2023-01-10T04:35:18;6.28;;;1.60;;
73276;SDS011;61501;43.316;5.372;2023-01-10T04:37:43;3.80;;;1.40;;
73276;SDS011;61501;43.316;5.372;2023-01-10T04:40:09;4.32;;;1.60;;
73276;SDS011;61501;43.316;5.372;2023-01-10T04:42:35;5.03;;;1.60;;
73276;SDS011;61501;43.316;5.372;2023-01-10T04:45:01;4.78;;;1.50;;
73276;SDS011;61501;43.316;5.372;2023-01-10T04:47:27;5.53;;;1.80;;
73276;SDS011;61501;43.316;5.372;2023-01-10T04:49:52;5.65;;;2.00;;
73276;SDS011;61501;43.316;5.372;2023-01-10T04:52:18;5.10;;;1.70;;
73276;SDS011;61501;43.316;5.372;2023-01-10T04:54:44;2.65;;;1.33;;
73276;SDS011;61501;43.316;5.372;2023-01-10T04:57:09;3.85;;;1.60;;
73276;SDS011;61501;43.316;5.372;2023-01-10T04:59:35;5.13;;;1.90;;
73276;SDS011;61501;43.316;5.372;2023-01-10T05:02:01;6.50;;;1.75;;
73276;SDS011;61501;43.316;5.372;2023-01-10T05:04:26;8.05;;;2.20;;
73276;SDS011;61501;43.316;5.372;2023-01-10T05:06:52;3.80;;;1.70;;
73276;SDS011;61501;43.316;5.372;2023-01-10T05:09:18;3.75;;;1.60;;
73276;SDS011;61501;43.316;5.372;2023-01-10T05:11:43;5.10;;;2.10;;
73276;SDS011;61501;43.316;5.372;2023-01-10T05:14:09;3.67;;;1.60;;
73276;SDS011;61501;43.316;5.372;2023-01-10T05:16:35;5.28;;;1.67;;
73276;SDS011;61501;43.316;5.372;2023-01-10T05:19:00;3.97;;;1.42;;
73276;SDS011;61501;43.316;5.372;2023-01-10T05:21:26;4.25;;;1.70;;
73276;SDS011;61501;43.316;5.372;2023-01-10T05:23:52;6.35;;;1.77;;
73276;SDS011;61501;43.316;5.372;2023-01-10T05:26:18;3.25;;;1.67;;
73276;SDS011;61501;43.316;5.372;2023-01-10T05:28:45;4.47;;;1.50;;
73276;SDS011;61501;43.316;5.372;2023-01-10T05:31:12;3.88;;;1.52;;
73276;SDS011;61501;43.316;5.372;2023-01-10T05:33:42;10.13;;;1.92;;
73276;SDS011;61501;43.316;5.372;2023-01-10T05:36:09;3.17;;;1.58;;
73276;SDS011;61501;43.316;5.372;2023-01-10T05:38:35;4.30;;;1.27;;
73276;SDS011;61501;43.316;5.372;2023-01-10T05:41:00;6.60;;;1.70;;
73276;SDS011;61501;43.316;5.372;2023-01-10T05:43:26;11.70;;;2.13;;
73276;SDS011;61501;43.316;5.372;2023-01-10T05:45:52;5.20;;;1.55;;
73276;SDS011;61501;43.316;5.372;2023-01-10T05:48:18;5.18;;;1.90;;
73276;SDS011;61501;43.316;5.372;2023-01-10T05:50:44;6.35;;;1.58;;
73276;SDS011;61501;43.316;5.372;2023-01-10T05:53:10;5.47;;;1.80;;
73276;SDS011;61501;43.316;5.372;2023-01-10T05:55:35;4.93;;;1.70;;
73276;SDS011;61501;43.316;5.372;2023-01-10T05:58:01;6.93;;;1.70;;
73276;SDS011;61501;43.316;5.372;2023-01-10T06:00:27;5.18;;;1.75;;
73276;SDS011;61501;43.316;5.372;2023-01-10T06:02:54;5.85;;;1.42;;
73276;SDS011;61501;43.316;5.372;2023-01-10T06:05:20;9.95;;;2.47;;
73276;SDS011;61501;43.316;5.372;2023-01-10T06:07:46;5.32;;;1.75;;
73276;SDS011;61501;43.316;5.372;2023-01-10T06:10:12;11.48;;;2.05;;
73276;SDS011;61501;43.316;5.372;2023-01-10T06:12:38;7.32;;;2.40;;
73276;SDS011;61501;43.316;5.372;2023-01-10T06:15:04;7.85;;;1.90;;
73276;SDS011;61501;43.316;5.372;2023-01-10T06:17:31;6.35;;;1.98;;
73276;SDS011;61501;43.316;5.372;2023-01-10T06:19:57;8.48;;;2.13;;
73276;SDS011;61501;43.316;5.372;2023-01-10T06:22:22;12.02;;;2.60;;
73276;SDS011;61501;43.316;5.372;2023-01-10T06:24:48;5.63;;;2.13;;
73276;SDS011;61501;43.316;5.372;2023-01-10T06:27:14;6.30;;;2.80;;
73276;SDS011;61501;43.316;5.372;2023-01-10T06:29:39;8.20;;;2.03;;
73276;SDS011;61501;43.316;5.372;2023-01-10T06:32:06;6.38;;;1.98;;
73276;SDS011;61501;43.316;5.372;2023-01-10T06:34:32;4.60;;;1.92;;
73276;SDS011;61501;43.316;5.372;2023-01-10T06:36:57;7.38;;;2.60;;
73276;SDS011;61501;43.316;5.372;2023-01-10T06:39:23;9.32;;;2.95;;
73276;SDS011;61501;43.316;5.372;2023-01-10T06:41:48;9.00;;;2.40;;
73276;SDS011;61501;43.316;5.372;2023-01-10T06:44:14;6.50;;;2.25;;
73276;SDS011;61501;43.316;5.372;2023-01-10T06:46:40;14.52;;;3.03;;
73276;SDS011;61501;43.316;5.372;2023-01-10T06:49:05;10.38;;;2.92;;
73276;SDS011;61501;43.316;5.372;2023-01-10T06:51:31;10.05;;;2.72;;
73276;SDS011;61501;43.316;5.372;2023-01-10T06:53:57;12.15;;;2.80;;
73276;SDS011;61501;43.316;5.372;2023-01-10T06:56:22;11.63;;;2.95;;
73276;SDS011;61501;43.316;5.372;2023-01-10T06:58:48;8.00;;;2.60;;
73276;SDS011;61501;43.316;5.372;2023-01-10T07:01:16;9.05;;;2.50;;
73276;SDS011;61501;43.316;5.372;2023-01-10T07:03:43;12.32;;;2.75;;
73276;SDS011;61501;43.316;5.372;2023-01-10T07:06:09;10.88;;;2.60;;
73276;SDS011;61501;43.316;5.372;2023-01-10T07:08:36;13.07;;;3.13;;
73276;SDS011;61501;43.316;5.372;2023-01-10T07:11:03;11.85;;;2.83;;
73276;SDS011;61501;43.316;5.372;2023-01-10T07:13:29;11.70;;;3.22;;
73276;SDS011;61501;43.316;5.372;2023-01-10T07:16:01;14.52;;;2.60;;
73276;SDS011;61501;43.316;5.372;2023-01-10T07:18:35;8.60;;;2.40;;
73276;SDS011;61501;43.316;5.372;2023-01-10T07:21:02;9.98;;;3.13;;
73276;SDS011;61501;43.316;5.372;2023-01-10T07:23:28;11.25;;;3.22;;
73276;SDS011;61501;43.316;5.372;2023-01-10T07:25:55;12.57;;;3.17;;
73276;SDS011;61501;43.316;5.372;2023-01-10T07:28:22;20.73;;;3.38;;
73276;SDS011;61501;43.316;5.372;2023-01-10T07:30:47;11.32;;;2.50;;
73276;SDS011;61501;43.316;5.372;2023-01-10T07:33:13;10.45;;;2.60;;
73276;SDS011;61501;43.316;5.372;2023-01-10T07:35:39;8.73;;;2.42;;
73276;SDS011;61501;43.316;5.372;2023-01-10T07:38:05;12.05;;;2.45;;
73276;SDS011;61501;43.316;5.372;2023-01-10T07:40:30;11.98;;;2.88;;
73276;SDS011;61501;43.316;5.372;2023-01-10T07:42:57;6.55;;;2.33;;
73276;SDS011;61501;43.316;5.372;2023-01-10T07:45:23;6.88;;;2.30;;
73276;SDS011;61501;43.316;5.372;2023-01-10T07:47:54;10.02;;;2.63;;
73276;SDS011;61501;43.316;5.372;2023-01-10T07:50:21;13.82;;;3.55;;
73276;SDS011;61501;43.316;5.372;2023-01-10T07:52:46;16.70;;;3.35;;
73276;SDS011;61501;43.316;5.372;2023-01-10T07:55:12;15.95;;;3.55;;
73276;SDS011;61501;43.316;5.372;2023-01-10T07:57:38;7.35;;;2.58;;
73276;SDS011;61501;43.316;5.372;2023-01-10T08:00:04;18.33;;;3.10;;
73276;SDS011;61501;43.316;5.372;2023-01-10T08:02:30;12.13;;;2.92;;
73276;SDS011;61501;43.316;5.372;2023-01-10T08:04:56;10.93;;;3.08;;
73276;SDS011;61501;43.316;5.372;2023-01-10T08:07:21;14.63;;;3.22;;
73276;SDS011;61501;43.316;5.372;2023-01-10T08:09:49;13.43;;;2.95;;
73276;SDS011;61501;43.316;5.372;2023-01-10T08:12:15;8.07;;;2.63;;
73276;SDS011;61501;43.316;5.372;2023-01-10T08:14:41;15.55;;;3.25;;
73276;SDS011;61501;43.316;5.372;2023-01-10T08:17:07;15.90;;;3.72;;
73276;SDS011;61501;43.316;5.372;2023-01-10T08:19:34;10.93;;;3.22;;
73276;SDS011;61501;43.316;5.372;2023-01-10T08:21:59;11.20;;;3.17;;
73276;SDS011;61501;43.316;5.372;2023-01-10T08:24:27;14.80;;;3.55;;
73276;SDS011;61501;43.316;5.372;2023-01-10T08:26:52;9.50;;;3.00;;
73276;SDS011;61501;43.316;5.372;2023-01-10T08:29:21;8.20;;;3.33;;
73276;SDS011;61501;43.316;5.372;2023-01-10T08:31:47;9.25;;;2.78;;
73276;SDS011;61501;43.316;5.372;2023-01-10T08:34:12;11.43;;;3.17;;
73276;SDS011;61501;43.316;5.372;2023-01-10T08:36:38;8.98;;;3.50;;
73276;SDS011;61501;43.316;5.372;2023-01-10T08:39:04;6.85;;;2.95;;
73276;SDS011;61501;43.316;5.372;2023-01-10T08:41:30;12.27;;;3.17;;
73276;SDS011;61501;43.316;5.372;2023-01-10T08:43:56;9.85;;;3.25;;
73276;SDS011;61501;43.316;5.372;2023-01-10T08:46:21;22.45;;;3.90;;
73276;SDS011;61501;43.316;5.372;2023-01-10T08:48:47;7.82;;;2.67;;
73276;SDS011;61501;43.316;5.372;2023-01-10T08:51:14;7.97;;;2.55;;
73276;SDS011;61501;43.316;5.372;2023-01-10T08:53:40;11.85;;;3.03;;
73276;SDS011;61501;43.316;5.372;2023-01-10T08:56:06;7.68;;;3.08;;
73276;SDS011;61501;43.316;5.372;2023-01-10T08:58:32;10.52;;;2.90;;
73276;SDS011;61501;43.316;5.372;2023-01-10T09:00:58;24.75;;;5.00;;
73276;SDS011;61501;43.316;5.372;2023-01-10T09:03:24;16.00;;;3.25;;
73276;SDS011;61501;43.316;5.372;2023-01-10T09:05:49;10.90;;;3.00;;
73276;SDS011;61501;43.316;5.372;2023-01-10T09:08:15;10.00;;;3.38;;
73276;SDS011;61501;43.316;5.372;2023-01-10T09:10:41;9.30;;;3.10;;
73276;SDS011;61501;43.316;5.372;2023-01-10T09:13:06;9.25;;;2.88;;
73276;SDS011;61501;43.316;5.372;2023-01-10T09:15:34;11.48;;;2.67;;
73276;SDS011;61501;43.316;5.372;2023-01-10T09:18:02;8.95;;;3.05;;
73276;SDS011;61501;43.316;5.372;2023-01-10T09:20:29;11.77;;;2.58;;
73276;SDS011;61501;43.316;5.372;2023-01-10T09:22:56;12.38;;;3.17;;
73276;SDS011;61501;43.316;5.372;2023-01-10T09:25:23;10.43;;;2.70;;
73276;SDS011;61501;43.316;5.372;2023-01-10T09:27:56;7.43;;;2.25;;
73276;SDS011;61501;43.316;5.372;2023-01-10T09:30:23;10.90;;;2.50;;
73276;SDS011;61501;43.316;5.372;2023-01-10T09:32:50;16.63;;;3.42;;
73276;SDS011;61501;43.316;5.372;2023-01-10T09:35:16;10.13;;;2.63;;
73276;SDS011;61501;43.316;5.372;2023-01-10T09:37:42;13.18;;;3.72;;
73276;SDS011;61501;43.316;5.372;2023-01-10T09:40:08;11.32;;;3.10;;
73276;SDS011;61501;43.316;5.372;2023-01-10T09:45:34;9.77;;;2.88;;
73276;SDS011;61501;43.316;5.372;2023-01-10T09:48:08;19.95;;;3.25;;
73276;SDS011;61501;43.316;5.372;2023-01-10T09:53:47;8.68;;;2.83;;
73276;SDS011;61501;43.316;5.372;2023-01-10T09:56:15;17.70;;;3.25;;
73276;SDS011;61501;43.316;5.372;2023-01-10T09:58:42;9.07;;;2.92;;
73276;SDS011;61501;43.316;5.372;2023-01-10T10:01:16;13.93;;;3.28;;
73276;SDS011;61501;43.316;5.372;2023-01-10T10:04:00;11.30;;;2.83;;
73276;SDS011;61501;43.316;5.372;2023-01-10T10:09:04;10.75;;;3.05;;
73276;SDS011;61501;43.316;5.372;2023-01-10T10:11:35;9.95;;;2.85;;
73276;SDS011;61501;43.316;5.372;2023-01-10T10:22:42;9.95;;;2.72;;
73276;SDS011;61501;43.316;5.372;2023-01-10T10:27:58;7.65;;;2.30;;
73276;SDS011;61501;43.316;5.372;2023-01-10T10:36:26;10.23;;;3.03;;
73276;SDS011;61501;43.316;5.372;2023-01-10T10:39:03;8.65;;;2.60;;
73276;SDS011;61501;43.316;5.372;2023-01-10T10:41:34;11.50;;;3.45;;
73276;SDS011;61501;43.316;5.372;2023-01-10T10:44:16;9.02;;;2.83;;
73276;SDS011;61501;43.316;5.372;2023-01-10T10:46:49;10.05;;;3.08;;
73276;SDS011;61501;43.316;5.372;2023-01-10T10:49:58;9.77;;;2.80;;
73276;SDS011;61501;43.316;5.372;2023-01-10T10:54:58;6.95;;;2.67;;
73276;SDS011;61501;43.316;5.372;2023-01-10T10:57:26;8.23;;;2.97;;
73276;SDS011;61501;43.316;5.372;2023-01-10T10:59:53;8.25;;;2.67;;
73276;SDS011;61501;43.316;5.372;2023-01-10T11:02:22;10.90;;;2.55;;
73276;SDS011;61501;43.316;5.372;2023-01-10T11:04:48;11.63;;;3.35;;
73276;SDS011;61501;43.316;5.372;2023-01-10T11:07:16;10.98;;;3.25;;
73276;SDS011;61501;43.316;5.372;2023-01-10T11:09:42;6.13;;;2.25;;
73276;SDS011;61501;43.316;5.372;2023-01-10T11:12:16;8.98;;;2.58;;
73276;SDS011;61501;43.316;5.372;2023-01-10T11:14:49;10.10;;;2.67;;
73276;SDS011;61501;43.316;5.372;2023-01-10T11:20:32;7.85;;;2.85;;
73276;SDS011;61501;43.316;5.372;2023-01-10T11:22:45;4.93;;;2.00;;
73276;SDS011;61501;43.316;5.372;2023-01-10T11:25:17;8.02;;;2.40;;
73276;SDS011;61501;43.316;5.372;2023-01-10T11:27:45;9.95;;;2.05;;
73276;SDS011;61501;43.316;5.372;2023-01-10T11:30:23;7.68;;;2.35;;
73276;SDS011;61501;43.316;5.372;2023-01-10T11:32:55;12.40;;;2.63;;
73276;SDS011;61501;43.316;5.372;2023-01-10T11:35:24;8.40;;;2.35;;
73276;SDS011;61501;43.316;5.372;2023-01-10T11:40:59;5.45;;;2.58;;
73276;SDS011;61501;43.316;5.372;2023-01-10T11:43:43;7.45;;;2.65;;
73276;SDS011;61501;43.316;5.372;2023-01-10T11:46:18;8.13;;;2.80;;
73276;SDS011;61501;43.316;5.372;2023-01-10T11:53:45;9.77;;;2.08;;
73276;SDS011;61501;43.316;5.372;2023-01-10T11:56:21;9.05;;;3.22;;
73276;SDS011;61501;43.316;5.372;2023-01-10T11:58:49;5.53;;;2.10;;
73276;SDS011;61501;43.316;5.372;2023-01-10T12:01:26;6.82;;;2.50;;
73276;SDS011;61501;43.316;5.372;2023-01-10T12:04:01;6.93;;;2.40;;
73276;SDS011;61501;43.316;5.372;2023-01-10T12:06:28;12.18;;;2.90;;
73276;SDS011;61501;43.316;5.372;2023-01-10T12:08:53;7.97;;;2.55;;
73276;SDS011;61501;43.316;5.372;2023-01-10T12:11:25;8.32;;;2.78;;
73276;SDS011;61501;43.316;5.372;2023-01-10T12:13:55;11.85;;;2.83;;
73276;SDS011;61501;43.316;5.372;2023-01-10T12:19:08;6.75;;;2.38;;
73276;SDS011;61501;43.316;5.372;2023-01-10T12:21:37;6.07;;;2.17;;
73276;SDS011;61501;43.316;5.372;2023-01-10T12:24:16;5.68;;;2.30;;
73276;SDS011;61501;43.316;5.372;2023-01-10T12:26:48;11.07;;;2.40;;
73276;SDS011;61501;43.316;5.372;2023-01-10T12:29:24;9.70;;;2.63;;
73276;SDS011;61501;43.316;5.372;2023-01-10T12:31:53;6.38;;;2.50;;
73276;SDS011;61501;43.316;5.372;2023-01-10T12:34:22;7.60;;;2.53;;
73276;SDS011;61501;43.316;5.372;2023-01-10T12:37:07;4.45;;;2.15;;
73276;SDS011;61501;43.316;5.372;2023-01-10T12:39:40;6.32;;;2.60;;
73276;SDS011;61501;43.316;5.372;2023-01-10T12:42:13;11.27;;;2.70;;
73276;SDS011;61501;43.316;5.372;2023-01-10T12:45:12;7.45;;;2.47;;
73276;SDS011;61501;43.316;5.372;2023-01-10T12:50:46;10.68;;;2.60;;
73276;SDS011;61501;43.316;5.372;2023-01-10T12:53:27;7.00;;;2.67;;
73276;SDS011;61501;43.316;5.372;2023-01-10T12:55:55;7.65;;;2.40;;
73276;SDS011;61501;43.316;5.372;2023-01-10T12:58:33;7.15;;;2.30;;
73276;SDS011;61501;43.316;5.372;2023-01-10T13:01:09;6.88;;;2.25;;
73276;SDS011;61501;43.316;5.372;2023-01-10T13:06:10;6.40;;;2.53;;
73276;SDS011;61501;43.316;5.372;2023-01-10T13:08:47;7.57;;;2.58;;
73276;SDS011;61501;43.316;5.372;2023-01-10T13:11:14;6.22;;;2.42;;
73276;SDS011;61501;43.316;5.372;2023-01-10T13:13:44;7.18;;;2.70;;
73276;SDS011;61501;43.316;5.372;2023-01-10T13:18:59;7.35;;;2.63;;
73276;SDS011;61501;43.316;5.372;2023-01-10T13:21:25;7.60;;;2.00;;
73276;SDS011;61501;43.316;5.372;2023-01-10T13:23:52;7.47;;;2.92;;
73276;SDS011;61501;43.316;5.372;2023-01-10T13:26:22;9.48;;;2.38;;
73276;SDS011;61501;43.316;5.372;2023-01-10T13:28:58;5.90;;;2.78;;
73276;SDS011;61501;43.316;5.372;2023-01-10T13:31:27;5.57;;;2.20;;
73276;SDS011;61501;43.316;5.372;2023-01-10T13:34:04;6.63;;;2.03;;
73276;SDS011;61501;43.316;5.372;2023-01-10T13:36:39;8.77;;;2.47;;
73276;SDS011;61501;43.316;5.372;2023-01-10T13:55:28;10.13;;;2.30;;
73276;SDS011;61501;43.316;5.372;2023-01-10T14:01:16;7.50;;;2.45;;
73276;SDS011;61501;43.316;5.372;2023-01-10T14:04:17;7.00;;;2.55;;
73276;SDS011;61501;43.316;5.372;2023-01-10T14:06:49;8.23;;;2.92;;
73276;SDS011;61501;43.316;5.372;2023-01-10T14:09:40;8.60;;;3.38;;
73276;SDS011;61501;43.316;5.372;2023-01-10T14:12:20;7.50;;;2.30;;
73276;SDS011;61501;43.316;5.372;2023-01-10T14:14:57;7.07;;;2.28;;
73276;SDS011;61501;43.316;5.372;2023-01-10T14:17:33;6.88;;;2.28;;
73276;SDS011;61501;43.316;5.372;2023-01-10T14:20:05;9.13;;;1.90;;
73276;SDS011;61501;43.316;5.372;2023-01-10T14:22:40;6.13;;;2.20;;
73276;SDS011;61501;43.316;5.372;2023-01-10T14:25:21;5.57;;;2.50;;
73276;SDS011;61501;43.316;5.372;2023-01-10T14:27:47;7.05;;;2.42;;
73276;SDS011;61501;43.316;5.372;2023-01-10T14:30:23;7.50;;;3.38;;
73276;SDS011;61501;43.316;5.372;2023-01-10T14:32:59;7.28;;;2.42;;
73276;SDS011;61501;43.316;5.372;2023-01-10T14:35:32;11.43;;;2.20;;
73276;SDS011;61501;43.316;5.372;2023-01-10T14:38:03;4.60;;;2.13;;
73276;SDS011;61501;43.316;5.372;2023-01-10T14:40:42;7.35;;;2.67;;
73276;SDS011;61501;43.316;5.372;2023-01-10T14:43:13;8.07;;;2.58;;
73276;SDS011;61501;43.316;5.372;2023-01-10T14:50:52;7.95;;;3.42;;
73276;SDS011;61501;43.316;5.372;2023-01-10T14:53:37;6.72;;;3.15;;
73276;SDS011;61501;43.316;5.372;2023-01-10T14:56:02;6.90;;;3.13;;
73276;SDS011;61501;43.316;5.372;2023-01-10T14:58:39;9.07;;;2.65;;
73276;SDS011;61501;43.316;5.372;2023-01-10T15:01:07;5.28;;;1.90;;
73276;SDS011;61501;43.316;5.372;2023-01-10T15:03:33;7.18;;;2.38;;
73276;SDS011;61501;43.316;5.372;2023-01-10T15:06:02;8.13;;;1.92;;
73276;SDS011;61501;43.316;5.372;2023-01-10T15:08:28;4.88;;;1.95;;
73276;SDS011;61501;43.316;5.372;2023-01-10T15:10:58;5.85;;;2.28;;
73276;SDS011;61501;43.316;5.372;2023-01-10T15:13:28;6.03;;;2.22;;
73276;SDS011;61501;43.316;5.372;2023-01-10T15:15:55;8.68;;;2.58;;
73276;SDS011;61501;43.316;5.372;2023-01-10T15:18:38;10.32;;;2.92;;
73276;SDS011;61501;43.316;5.372;2023-01-10T15:21:09;6.82;;;1.98;;
73276;SDS011;61501;43.316;5.372;2023-01-10T15:23:38;6.07;;;1.90;;
73276;SDS011;61501;43.316;5.372;2023-01-10T15:26:09;10.13;;;3.03;;
73276;SDS011;61501;43.316;5.372;2023-01-10T15:28:40;8.63;;;3.03;;
73276;SDS011;61501;43.316;5.372;2023-01-10T15:31:06;5.07;;;2.63;;
73276;SDS011;61501;43.316;5.372;2023-01-10T15:33:35;5.32;;;2.17;;
73276;SDS011;61501;43.316;5.372;2023-01-10T15:36:03;9.57;;;2.50;;
73276;SDS011;61501;43.316;5.372;2023-01-10T15:38:31;7.25;;;2.83;;
73276;SDS011;61501;43.316;5.372;2023-01-10T15:41:00;6.63;;;2.50;;
73276;SDS011;61501;43.316;5.372;2023-01-10T15:43:28;6.88;;;2.50;;
73276;SDS011;61501;43.316;5.372;2023-01-10T15:45:55;5.90;;;2.45;;
73276;SDS011;61501;43.316;5.372;2023-01-10T15:48:29;9.48;;;2.60;;
73276;SDS011;61501;43.316;5.372;2023-01-10T15:51:10;7.53;;;2.47;;
73276;SDS011;61501;43.316;5.372;2023-01-10T15:56:17;10.05;;;2.45;;
73276;SDS011;61501;43.316;5.372;2023-01-10T15:58:47;13.25;;;2.58;;
73276;SDS011;61501;43.316;5.372;2023-01-10T16:01:13;7.00;;;2.60;;
73276;SDS011;61501;43.316;5.372;2023-01-10T16:03:47;8.50;;;3.55;;
73276;SDS011;61501;43.316;5.372;2023-01-10T16:06:24;7.43;;;2.42;;
73276;SDS011;61501;43.316;5.372;2023-01-10T16:08:53;9.63;;;3.22;;
73276;SDS011;61501;43.316;5.372;2023-01-10T16:14:20;7.43;;;3.03;;
73276;SDS011;61501;43.316;5.372;2023-01-10T16:16:46;8.07;;;3.00;;
73276;SDS011;61501;43.316;5.372;2023-01-10T16:19:11;8.85;;;2.80;;
73276;SDS011;61501;43.316;5.372;2023-01-10T16:21:38;7.28;;;2.58;;
73276;SDS011;61501;43.316;5.372;2023-01-10T16:24:06;8.70;;;2.85;;
73276;SDS011;61501;43.316;5.372;2023-01-10T16:26:44;7.22;;;2.70;;
73276;SDS011;61501;43.316;5.372;2023-01-10T16:29:10;6.63;;;2.65;;
73276;SDS011;61501;43.316;5.372;2023-01-10T16:31:36;9.00;;;3.45;;
73276;SDS011;61501;43.316;5.372;2023-01-10T16:34:01;7.15;;;2.67;;
73276;SDS011;61501;43.316;5.372;2023-01-10T16:36:27;9.63;;;2.60;;
73276;SDS011;61501;43.316;5.372;2023-01-10T16:38:53;7.72;;;2.47;;
73276;SDS011;61501;43.316;5.372;2023-01-10T16:41:18;6.47;;;2.83;;
73276;SDS011;61501;43.316;5.372;2023-01-10T16:44:02;8.00;;;3.10;;
73276;SDS011;61501;43.316;5.372;2023-01-10T16:46:28;8.27;;;2.65;;
73276;SDS011;61501;43.316;5.372;2023-01-10T16:48:55;9.40;;;3.28;;
73276;SDS011;61501;43.316;5.372;2023-01-10T16:51:22;5.95;;;2.70;;
73276;SDS011;61501;43.316;5.372;2023-01-10T16:53:50;9.65;;;3.45;;